MPTO/PTY METAR and TAF weather

Enter ICAO airport designator
Station Type Date Time Source
MPTO METAR 2020/08/14 02:00 UTC NOAA

MPTO 140200Z 00000KT 9999 FEW008 SCT016CB BKN080 25/24 Q1008 RERA RWY DAMP NOSIG


Station Type Date Time Source
MPTO Decoded METAR 2020/08/14 02:00 UTC NOAA

Tocumen, Panama (MPTO) 09-03N 079-22W
Aug 13, 2020 - 10:00 PM EDT / 2020.08.14 0200 UTC
Wind: Calm:0
Visibility: greater than 7 mile(s):0
Sky conditions: mostly cloudy
Weather: Cumulonimbus clouds observed
Temperature: 77 F (25 C)
Dew Point: 75 F (24 C)
Relative Humidity: 94%
Pressure (altimeter): 29.77 in. Hg (1008 hPa)
ob: MPTO 140200Z 00000KT 9999 FEW008 SCT016CB BKN080 25/24 Q1008 RERA RWY DAMP NOSIG
cycle: 2

Station Type Date Time Source
MPTO TAF 2020/08/13 18:39 UTC NOAA

TAF MPTO 131700Z 1318/1424 29006KT 9999 SCT018 SCT090 PROB40
TEMPO 1319/1323 18007KT 6000 TSRA SCT014CB BKN090 PROB40
TEMPO 1323/1401 7000 RA SCT016 BKN090
TEMPO 1408/1412 VRB02KT PROB30 1409/1413 7000 TSRA SCT015CB BKN090

Example: see airport list